Blythe, CA

7:44 PM PST on February 08, 2016 (GMT -0800)
farmerman92225 | | Change Station
CLOSE
Current Station
Personal Weather Station
Location: Blythe, CA
Elevation: 259 ft
Nearby Weather Stations

Elev 259 ft 33.62 °N, 114.66 °W | Updated 1 minute ago

Clear
Clear
68.0 °F
Feels Like 68.0 °F
N
8.0
Wind Variable Wind from NW
Gusts 9.0 mph

Today
High -- | Low -- °F
--% Chance of Precip.
Yesterday
High -- | Low -- °F
Precip. -- in
Pressure 30.15 in
Visibility 10.0 miles
Clouds Clear
Dew Point 27 °F
Humidity 21%
Rainfall 0.00 in
Snow Depth Not available.
6:29 AM 5:16 PM
New Moon, 0% visible
METAR KBLH 090252Z AUTO 34009KT 10SM CLR 21/M06 A3015 RMK AO2 SLP208 T02061056 53005
Pressure 30.15 in
Visibility 10.0 miles
Clouds Clear
Dew Point 27 °F
Humidity 21%
Rainfall 0.00 in
Snow Depth Not available.
6:29 AM 5:16 PM
New Moon, 0% visible
METAR KBLH 090252Z AUTO 34009KT 10SM CLR 21/M06 A3015 RMK AO2 SLP208 T02061056 53005

10-Day Weather Forecast

Almanac

Astronomy

Feb. 08, 2016 Rise Set
Actual Time
Civil Twilight
Nautical Twilight
Astronomical Twilight
Moon
Length of Visible Light
Length of Day
Tomorrow will be .
, % of the Moon is Illuminated

Today's Extremes

State Highs State Lows

Community

WunderPhotos

Upload Photos

1,891,528 photos uploaded!

WunderBlog® & News

Nearby

Air Quality

  Air Quality AQ Index Pollutant
Not available.

Snow Depth

Station Depth Elevation

Earthquake Activity

City Distance Mag. Time & Date
Minimum magnitude displayed is 2.5.

Coastal Water Temperatures

Place Temperature

Stations

Nearby Weather Stations

Station Location Temp. Windchill Dew Point Humidity Wind Precip. Elev Updated Type
                   

Watches & Warnings

There are currently no watches in effect.